Crabtree, Canada
Current Conditions -  °F | °C
As of 7:00 PM on Thursday 27 Nov 2014 (Local Time) from CYHU Reporting Station
Scattered Clouds Scattered Clouds  
Wind Chill: 25°   Ceiling: Unl
Heat Index: 25°   Visibility: 9mi
Dew Point: 18°   Wind: 2mph
Humidity: 74%   Direction: 330°NNW
Pressure: 30.05"   Gusts: NA
Location:  45.97°N, 73.47°W
Report Text: CYHU 280000Z AUTO 33002KT 9SM FEW034 SCT150 SCT170 M04/M08 A3005 RMK SLP176
Loading
Personal Weather Stations






























Interactive Weather Map New forecast layout! Learn more

10-Day Weather Forecast

Advertisements
Track Severe Weather on mobile